X  Schlie├čen METAR Luftfahrt Wetterdaten     KDZJ Blairsville Airport
Temperatur
52°F Temperatur
50°F Taupunkt
94% Feuchtigkeit



Wind
3 MPS
5 KM/S
1 M/S
3 KTS



260°
W
Aktuelle Wetterlage

Klar Klar
Luftdruck 1015.92 (hPa) - 30 (inHg)
Sichtweite 10 (Meile) - 16.1 (Km)
Flughafen
Flughafen Code KDZJ

Position : Blairsville Airport
Entfernung: 18 (mi)

Metar:
KDZJ 020315Z AUTO 26003KT 10SM CLR 11/10 A3000 RMK AO2 T01070097

Zeit: 10-01-2022 23:15 EDT